Weather at Saipem Airport

Public forecast

Using degrees Celsius for public forecast. Weather courtesy of forecast.io.

Closest aviation weather report (METAR) to Saipem Airport

Report is more than 6 hours old.

Closest report is Mount Denison Airport, 94.2 nm (174.5 km) N. Retrieved 2014/09/11 23:00 UTC (7 years ago):

YMNN 112300Z 00000KT 9999 -TS SCT15CB SCT016TCU BKN250 25/22 A2997

Closest aviation forecast (TAF) to Saipem Airport

Closest forecast is Alice Springs Airport, 112.0 nm (207.4 km) E. Retrieved 2021-06-25 00:00 UTC (3 hours ago):

TAF YBAS 242303Z 2500/2600 16010KT 9999 FEW045 FM250830 16006KT 9999 FEW050 FM251500 27005KT 9999 SCT040